sensor_id;sensor_type;location;lat;lon;timestamp;pressure;altitude;pressure_sealevel;temperature;humidity
78839;BME280;68405;47.190;27.558;2023-04-16T00:00:48;99765.09;;;7.41;83.43
78839;BME280;68405;47.190;27.558;2023-04-16T00:03:35;99765.29;;;7.40;84.81
78839;BME280;68405;47.190;27.558;2023-04-16T00:06:07;99767.29;;;7.35;82.49
78839;BME280;68405;47.190;27.558;2023-04-16T00:08:38;99771.30;;;7.34;83.56
78839;BME280;68405;47.190;27.558;2023-04-16T00:11:12;99772.59;;;7.30;82.32
78839;BME280;68405;47.190;27.558;2023-04-16T00:13:44;99775.26;;;7.26;81.56
78839;BME280;68405;47.190;27.558;2023-04-16T00:16:15;99777.38;;;7.25;82.97
78839;BME280;68405;47.190;27.558;2023-04-16T00:18:47;99776.89;;;7.23;83.60
78839;BME280;68405;47.190;27.558;2023-04-16T00:21:18;99782.64;;;7.21;83.18
78839;BME280;68405;47.190;27.558;2023-04-16T00:23:49;99791.46;;;7.21;81.88
78839;BME280;68405;47.190;27.558;2023-04-16T00:26:21;99794.21;;;7.21;82.08
78839;BME280;68405;47.190;27.558;2023-04-16T00:28:53;99794.36;;;7.22;81.74
78839;BME280;68405;47.190;27.558;2023-04-16T00:31:29;99795.45;;;7.28;81.96
78839;BME280;68405;47.190;27.558;2023-04-16T00:34:01;99794.58;;;7.36;83.37
78839;BME280;68405;47.190;27.558;2023-04-16T00:36:32;99793.91;;;7.42;81.95
78839;BME280;68405;47.190;27.558;2023-04-16T00:39:04;99793.77;;;7.49;81.69
78839;BME280;68405;47.190;27.558;2023-04-16T00:41:36;99793.39;;;7.57;82.11
78839;BME280;68405;47.190;27.558;2023-04-16T00:44:08;99791.67;;;7.65;81.09
78839;BME280;68405;47.190;27.558;2023-04-16T00:46:40;99790.23;;;7.73;80.73
78839;BME280;68405;47.190;27.558;2023-04-16T00:49:12;99795.21;;;7.83;80.86
78839;BME280;68405;47.190;27.558;2023-04-16T00:51:44;99791.36;;;7.91;81.46
78839;BME280;68405;47.190;27.558;2023-04-16T00:54:15;99794.29;;;7.99;80.80
78839;BME280;68405;47.190;27.558;2023-04-16T00:56:47;99795.80;;;8.07;80.34
78839;BME280;68405;47.190;27.558;2023-04-16T00:59:20;99794.03;;;8.16;80.46
78839;BME280;68405;47.190;27.558;2023-04-16T01:01:52;99795.00;;;8.25;80.14
78839;BME280;68405;47.190;27.558;2023-04-16T01:04:23;99800.84;;;8.33;80.15
78839;BME280;68405;47.190;27.558;2023-04-16T01:06:55;99805.66;;;8.41;80.28
78839;BME280;68405;47.190;27.558;2023-04-16T01:09:26;99796.55;;;8.46;80.48
78839;BME280;68405;47.190;27.558;2023-04-16T01:11:58;99799.14;;;8.53;80.70
78839;BME280;68405;47.190;27.558;2023-04-16T01:14:30;99797.77;;;8.59;80.14
78839;BME280;68405;47.190;27.558;2023-04-16T01:17:05;99798.61;;;8.65;80.11
78839;BME280;68405;47.190;27.558;2023-04-16T01:19:36;99796.70;;;8.72;80.16
78839;BME280;68405;47.190;27.558;2023-04-16T01:22:08;99799.15;;;8.78;80.21
78839;BME280;68405;47.190;27.558;2023-04-16T01:24:40;99799.36;;;8.82;80.41
78839;BME280;68405;47.190;27.558;2023-04-16T01:27:11;99800.13;;;8.86;81.17
78839;BME280;68405;47.190;27.558;2023-04-16T01:29:43;99796.40;;;8.88;80.59
78839;BME280;68405;47.190;27.558;2023-04-16T01:32:14;99797.84;;;8.93;79.74
78839;BME280;68405;47.190;27.558;2023-04-16T01:34:46;99799.60;;;8.98;79.56
78839;BME280;68405;47.190;27.558;2023-04-16T01:37:17;99797.41;;;9.01;79.54
78839;BME280;68405;47.190;27.558;2023-04-16T01:39:49;99797.69;;;9.04;79.24
78839;BME280;68405;47.190;27.558;2023-04-16T01:42:21;99797.34;;;9.04;79.04
78839;BME280;68405;47.190;27.558;2023-04-16T01:44:52;99797.33;;;9.05;79.64
78839;BME280;68405;47.190;27.558;2023-04-16T01:47:24;99794.39;;;9.04;79.12
78839;BME280;68405;47.190;27.558;2023-04-16T01:49:55;99795.69;;;9.07;79.06
78839;BME280;68405;47.190;27.558;2023-04-16T01:52:27;99794.59;;;9.10;79.16
78839;BME280;68405;47.190;27.558;2023-04-16T01:54:58;99795.70;;;9.13;79.07
78839;BME280;68405;47.190;27.558;2023-04-16T01:57:30;99790.45;;;9.15;78.96
78839;BME280;68405;47.190;27.558;2023-04-16T02:00:02;99793.20;;;9.15;78.76
78839;BME280;68405;47.190;27.558;2023-04-16T02:02:35;99790.72;;;9.17;78.97
78839;BME280;68405;47.190;27.558;2023-04-16T02:05:07;99790.31;;;9.19;78.73
78839;BME280;68405;47.190;27.558;2023-04-16T02:07:39;99792.19;;;9.20;78.30
78839;BME280;68405;47.190;27.558;2023-04-16T02:10:11;99795.30;;;9.20;79.05
78839;BME280;68405;47.190;27.558;2023-04-16T02:12:42;99796.31;;;9.21;78.80
78839;BME280;68405;47.190;27.558;2023-04-16T02:15:14;99798.15;;;9.24;78.78
78839;BME280;68405;47.190;27.558;2023-04-16T02:17:46;99797.81;;;9.23;78.77
78839;BME280;68405;47.190;27.558;2023-04-16T02:20:20;99800.77;;;9.23;78.44
78839;BME280;68405;47.190;27.558;2023-04-16T02:22:52;99800.25;;;9.23;78.58
78839;BME280;68405;47.190;27.558;2023-04-16T02:25:23;99800.87;;;9.25;78.86
78839;BME280;68405;47.190;27.558;2023-04-16T02:27:55;99801.91;;;9.25;78.50
78839;BME280;68405;47.190;27.558;2023-04-16T02:30:26;99802.74;;;9.27;78.86
78839;BME280;68405;47.190;27.558;2023-04-16T02:32:58;99802.58;;;9.26;78.84
78839;BME280;68405;47.190;27.558;2023-04-16T02:35:31;99804.33;;;9.25;78.94
78839;BME280;68405;47.190;27.558;2023-04-16T02:38:03;99805.96;;;9.23;79.26
78839;BME280;68405;47.190;27.558;2023-04-16T02:40:35;99804.77;;;9.23;79.14
78839;BME280;68405;47.190;27.558;2023-04-16T02:43:07;99805.01;;;9.20;79.07
78839;BME280;68405;47.190;27.558;2023-04-16T02:45:38;99798.77;;;9.21;78.83
78839;BME280;68405;47.190;27.558;2023-04-16T02:48:10;99799.46;;;9.20;78.79
78839;BME280;68405;47.190;27.558;2023-04-16T02:50:42;99802.73;;;9.21;78.67
78839;BME280;68405;47.190;27.558;2023-04-16T02:53:13;99801.53;;;9.20;78.84
78839;BME280;68405;47.190;27.558;2023-04-16T02:55:51;99801.04;;;9.20;78.95
78839;BME280;68405;47.190;27.558;2023-04-16T02:58:23;99808.67;;;9.19;78.95
78839;BME280;68405;47.190;27.558;2023-04-16T03:00:55;99807.21;;;9.16;78.72
78839;BME280;68405;47.190;27.558;2023-04-16T03:03:27;99808.77;;;9.16;78.88
78839;BME280;68405;47.190;27.558;2023-04-16T03:05:58;99810.20;;;9.15;78.62
78839;BME280;68405;47.190;27.558;2023-04-16T03:08:30;99808.71;;;9.12;78.99
78839;BME280;68405;47.190;27.558;2023-04-16T03:11:02;99807.57;;;9.10;78.76
78839;BME280;68405;47.190;27.558;2023-04-16T03:13:33;99811.11;;;9.07;79.27
78839;BME280;68405;47.190;27.558;2023-04-16T03:16:05;99810.18;;;9.03;79.65
78839;BME280;68405;47.190;27.558;2023-04-16T03:18:37;99809.17;;;8.97;79.65
78839;BME280;68405;47.190;27.558;2023-04-16T03:21:09;99810.30;;;8.93;79.63
78839;BME280;68405;47.190;27.558;2023-04-16T03:23:40;99814.56;;;8.89;79.70
78839;BME280;68405;47.190;27.558;2023-04-16T03:26:12;99814.95;;;8.88;79.33
78839;BME280;68405;47.190;27.558;2023-04-16T03:28:43;99814.70;;;8.85;80.05
78839;BME280;68405;47.190;27.558;2023-04-16T03:31:15;99816.48;;;8.83;79.65
78839;BME280;68405;47.190;27.558;2023-04-16T03:33:46;99824.80;;;8.83;79.61
78839;BME280;68405;47.190;27.558;2023-04-16T03:36:18;99820.84;;;8.82;80.26
78839;BME280;68405;47.190;27.558;2023-04-16T03:38:50;99825.55;;;8.81;80.62
78839;BME280;68405;47.190;27.558;2023-04-16T03:41:21;99825.58;;;8.79;80.92
78839;BME280;68405;47.190;27.558;2023-04-16T03:43:53;99833.16;;;8.81;80.95
78839;BME280;68405;47.190;27.558;2023-04-16T03:46:24;99835.33;;;8.84;80.21
78839;BME280;68405;47.190;27.558;2023-04-16T03:48:56;99836.34;;;8.85;80.52
78839;BME280;68405;47.190;27.558;2023-04-16T03:51:27;99837.81;;;8.88;80.57
78839;BME280;68405;47.190;27.558;2023-04-16T03:53:59;99834.45;;;8.91;80.57
78839;BME280;68405;47.190;27.558;2023-04-16T03:56:30;99836.43;;;8.94;80.62
78839;BME280;68405;47.190;27.558;2023-04-16T03:59:02;99839.02;;;9.00;80.51
78839;BME280;68405;47.190;27.558;2023-04-16T04:01:33;99841.98;;;9.12;80.20
78839;BME280;68405;47.190;27.558;2023-04-16T04:04:05;99843.80;;;9.33;79.63
78839;BME280;68405;47.190;27.558;2023-04-16T04:06:37;99847.53;;;9.47;79.38
78839;BME280;68405;47.190;27.558;2023-04-16T04:09:08;99850.49;;;9.58;79.07
78839;BME280;68405;47.190;27.558;2023-04-16T04:11:40;99855.02;;;9.58;78.94
78839;BME280;68405;47.190;27.558;2023-04-16T04:14:11;99856.46;;;9.61;78.81
78839;BME280;68405;47.190;27.558;2023-04-16T04:16:43;99852.02;;;9.59;79.10
78839;BME280;68405;47.190;27.558;2023-04-16T04:19:15;99847.89;;;9.64;79.09
78839;BME280;68405;47.190;27.558;2023-04-16T04:21:46;99849.25;;;9.70;78.84
78839;BME280;68405;47.190;27.558;2023-04-16T04:24:18;99849.34;;;9.78;78.65
78839;BME280;68405;47.190;27.558;2023-04-16T04:26:49;99849.60;;;9.87;78.56
78839;BME280;68405;47.190;27.558;2023-04-16T04:29:21;99852.06;;;9.96;78.30
78839;BME280;68405;47.190;27.558;2023-04-16T04:31:52;99850.17;;;10.12;78.09
78839;BME280;68405;47.190;27.558;2023-04-16T04:34:24;99852.94;;;10.28;77.53
78839;BME280;68405;47.190;27.558;2023-04-16T04:36:55;99853.95;;;10.40;76.96
78839;BME280;68405;47.190;27.558;2023-04-16T04:39:27;99854.04;;;10.52;76.66
78839;BME280;68405;47.190;27.558;2023-04-16T04:41:59;99857.13;;;10.64;76.23
78839;BME280;68405;47.190;27.558;2023-04-16T04:44:32;99859.48;;;10.71;75.92
78839;BME280;68405;47.190;27.558;2023-04-16T04:47:03;99859.39;;;10.83;75.54
78839;BME280;68405;47.190;27.558;2023-04-16T04:49:35;99863.45;;;10.91;75.05
78839;BME280;68405;47.190;27.558;2023-04-16T04:52:06;99861.52;;;11.06;75.10
78839;BME280;68405;47.190;27.558;2023-04-16T04:54:38;99862.21;;;11.43;74.56
78839;BME280;68405;47.190;27.558;2023-04-16T04:57:10;99866.54;;;11.93;73.29
78839;BME280;68405;47.190;27.558;2023-04-16T04:59:42;99871.98;;;12.35;72.43
78839;BME280;68405;47.190;27.558;2023-04-16T05:02:13;99869.48;;;12.57;70.55
78839;BME280;68405;47.190;27.558;2023-04-16T05:04:45;99869.40;;;12.55;70.78
78839;BME280;68405;47.190;27.558;2023-04-16T05:07:17;99870.90;;;12.77;69.56
78839;BME280;68405;47.190;27.558;2023-04-16T05:09:48;99870.13;;;12.95;69.74
78839;BME280;68405;47.190;27.558;2023-04-16T05:12:19;99864.45;;;13.16;69.22
78839;BME280;68405;47.190;27.558;2023-04-16T05:14:51;99870.09;;;13.39;68.36
78839;BME280;68405;47.190;27.558;2023-04-16T05:17:23;99876.40;;;13.61;67.18
78839;BME280;68405;47.190;27.558;2023-04-16T05:19:54;99876.73;;;13.57;66.02
78839;BME280;68405;47.190;27.558;2023-04-16T05:22:25;99875.59;;;13.32;65.82
78839;BME280;68405;47.190;27.558;2023-04-16T05:24:57;99879.17;;;13.46;67.64
78839;BME280;68405;47.190;27.558;2023-04-16T05:27:29;99880.81;;;13.48;66.33
78839;BME280;68405;47.190;27.558;2023-04-16T05:30:00;99873.26;;;13.53;66.46
78839;BME280;68405;47.190;27.558;2023-04-16T05:32:32;99876.99;;;13.70;67.56
78839;BME280;68405;47.190;27.558;2023-04-16T05:35:04;99881.67;;;14.00;66.36
78839;BME280;68405;47.190;27.558;2023-04-16T05:37:36;99875.52;;;14.30;65.46
78839;BME280;68405;47.190;27.558;2023-04-16T05:40:10;99882.73;;;14.57;63.64
78839;BME280;68405;47.190;27.558;2023-04-16T05:42:42;99880.26;;;14.57;63.19
78839;BME280;68405;47.190;27.558;2023-04-16T05:45:13;99887.95;;;14.75;63.07
78839;BME280;68405;47.190;27.558;2023-04-16T05:47:45;99889.08;;;14.94;61.83
78839;BME280;68405;47.190;27.558;2023-04-16T05:50:17;99889.52;;;15.22;60.86
78839;BME280;68405;47.190;27.558;2023-04-16T05:52:48;99888.34;;;15.40;60.81
78839;BME280;68405;47.190;27.558;2023-04-16T05:55:20;99888.28;;;15.83;61.05
78839;BME280;68405;47.190;27.558;2023-04-16T05:57:51;99888.25;;;16.24;59.71
78839;BME280;68405;47.190;27.558;2023-04-16T06:00:23;99891.01;;;16.67;59.44
78839;BME280;68405;47.190;27.558;2023-04-16T06:02:54;99890.79;;;16.88;58.74
78839;BME280;68405;47.190;27.558;2023-04-16T06:05:27;99893.80;;;16.91;56.53
78839;BME280;68405;47.190;27.558;2023-04-16T06:07:59;99892.63;;;16.84;56.75
78839;BME280;68405;47.190;27.558;2023-04-16T06:10:30;99894.17;;;17.00;55.43
78839;BME280;68405;47.190;27.558;2023-04-16T06:13:02;99888.89;;;17.08;55.86
78839;BME280;68405;47.190;27.558;2023-04-16T06:15:33;99899.38;;;17.26;54.47
78839;BME280;68405;47.190;27.558;2023-04-16T06:18:05;99902.22;;;17.43;54.25
78839;BME280;68405;47.190;27.558;2023-04-16T06:20:36;99909.98;;;17.82;52.47
78839;BME280;68405;47.190;27.558;2023-04-16T06:23:08;99911.92;;;18.46;53.51
78839;BME280;68405;47.190;27.558;2023-04-16T06:25:39;99915.80;;;18.86;53.20
78839;BME280;68405;47.190;27.558;2023-04-16T06:28:11;99921.20;;;19.17;50.61
78839;BME280;68405;47.190;27.558;2023-04-16T06:30:42;99923.42;;;19.39;49.56
78839;BME280;68405;47.190;27.558;2023-04-16T06:33:14;99922.73;;;19.69;48.49
78839;BME280;68405;47.190;27.558;2023-04-16T06:35:46;99931.67;;;20.11;47.77
78839;BME280;68405;47.190;27.558;2023-04-16T06:38:17;99932.95;;;20.32;48.43
78839;BME280;68405;47.190;27.558;2023-04-16T06:40:49;99934.42;;;20.38;47.14
78839;BME280;68405;47.190;27.558;2023-04-16T06:43:21;99928.78;;;20.86;44.93
78839;BME280;68405;47.190;27.558;2023-04-16T06:45:52;99925.61;;;20.52;44.13
78839;BME280;68405;47.190;27.558;2023-04-16T06:48:24;99920.66;;;21.47;45.40
78839;BME280;68405;47.190;27.558;2023-04-16T06:50:55;99914.39;;;21.79;42.71
78839;BME280;68405;47.190;27.558;2023-04-16T06:53:27;99913.58;;;22.33;41.22
78839;BME280;68405;47.190;27.558;2023-04-16T06:55:58;99918.27;;;23.06;40.40
78839;BME280;68405;47.190;27.558;2023-04-16T06:58:30;99914.90;;;23.69;37.73
78839;BME280;68405;47.190;27.558;2023-04-16T07:01:01;99916.81;;;24.09;37.23
78839;BME280;68405;47.190;27.558;2023-04-16T07:03:33;99916.09;;;24.66;37.83
78839;BME280;68405;47.190;27.558;2023-04-16T07:06:05;99913.88;;;24.76;36.38
78839;BME280;68405;47.190;27.558;2023-04-16T07:08:37;99915.14;;;25.48;35.59
78839;BME280;68405;47.190;27.558;2023-04-16T07:11:09;99921.81;;;25.30;34.35
78839;BME280;68405;47.190;27.558;2023-04-16T07:13:41;99922.84;;;25.43;34.88
78839;BME280;68405;47.190;27.558;2023-04-16T07:16:12;99921.70;;;25.48;35.39
78839;BME280;68405;47.190;27.558;2023-04-16T07:18:44;99929.77;;;23.94;36.42
78839;BME280;68405;47.190;27.558;2023-04-16T07:21:16;99925.73;;;23.14;38.24
78839;BME280;68405;47.190;27.558;2023-04-16T07:23:47;99933.91;;;22.46;40.18
78839;BME280;68405;47.190;27.558;2023-04-16T07:26:19;99930.89;;;22.05;40.87
78839;BME280;68405;47.190;27.558;2023-04-16T07:28:50;99931.23;;;21.81;41.70
78839;BME280;68405;47.190;27.558;2023-04-16T07:31:22;99923.07;;;21.43;42.05
78839;BME280;68405;47.190;27.558;2023-04-16T07:33:54;99921.38;;;21.35;42.64
78839;BME280;68405;47.190;27.558;2023-04-16T07:36:25;99915.13;;;21.04;42.41
78839;BME280;68405;47.190;27.558;2023-04-16T07:38:57;99913.15;;;20.82;43.30
78839;BME280;68405;47.190;27.558;2023-04-16T07:41:29;99917.77;;;20.42;43.95
78839;BME280;68405;47.190;27.558;2023-04-16T07:44:00;99920.05;;;19.24;46.53
78839;BME280;68405;47.190;27.558;2023-04-16T07:46:32;99921.02;;;19.53;46.29
78839;BME280;68405;47.190;27.558;2023-04-16T07:49:04;99920.63;;;19.76;46.17
78839;BME280;68405;47.190;27.558;2023-04-16T07:51:36;99922.92;;;20.07;45.71
78839;BME280;68405;47.190;27.558;2023-04-16T07:54:07;99926.55;;;20.01;45.86
78839;BME280;68405;47.190;27.558;2023-04-16T07:56:39;99930.27;;;20.06;46.40
78839;BME280;68405;47.190;27.558;2023-04-16T07:59:10;99928.60;;;19.88;46.64
78839;BME280;68405;47.190;27.558;2023-04-16T08:01:42;99926.59;;;19.64;47.05
78839;BME280;68405;47.190;27.558;2023-04-16T08:04:14;99925.39;;;19.66;47.22
78839;BME280;68405;47.190;27.558;2023-04-16T08:06:53;99933.98;;;19.46;47.89
78839;BME280;68405;47.190;27.558;2023-04-16T08:09:27;99936.23;;;19.32;47.88
78839;BME280;68405;47.190;27.558;2023-04-16T08:11:58;99943.11;;;19.06;48.38
78839;BME280;68405;47.190;27.558;2023-04-16T08:14:30;99938.50;;;18.54;49.17
78839;BME280;68405;47.190;27.558;2023-04-16T08:17:02;99940.23;;;18.06;50.18
78839;BME280;68405;47.190;27.558;2023-04-16T08:19:33;99941.45;;;17.41;51.44
78839;BME280;68405;47.190;27.558;2023-04-16T08:22:05;99938.83;;;17.41;51.22
78839;BME280;68405;47.190;27.558;2023-04-16T08:24:36;99938.73;;;17.46;51.53
78839;BME280;68405;47.190;27.558;2023-04-16T08:27:08;99930.77;;;17.81;51.08
78839;BME280;68405;47.190;27.558;2023-04-16T08:29:40;99929.96;;;18.10;50.59
78839;BME280;68405;47.190;27.558;2023-04-16T08:32:12;99926.91;;;18.32;50.34
78839;BME280;68405;47.190;27.558;2023-04-16T08:34:44;99924.27;;;18.46;50.24
78839;BME280;68405;47.190;27.558;2023-04-16T08:37:15;99926.16;;;18.36;50.46
78839;BME280;68405;47.190;27.558;2023-04-16T08:39:47;99930.33;;;18.42;50.23
78839;BME280;68405;47.190;27.558;2023-04-16T08:42:29;99930.16;;;18.58;50.04
78839;BME280;68405;47.190;27.558;2023-04-16T08:45:07;99929.83;;;18.66;49.82
78839;BME280;68405;47.190;27.558;2023-04-16T08:47:42;99931.21;;;18.74;50.11
78839;BME280;68405;47.190;27.558;2023-04-16T08:50:19;99932.62;;;18.92;49.79
78839;BME280;68405;47.190;27.558;2023-04-16T08:52:55;99933.55;;;19.27;49.49
78839;BME280;68405;47.190;27.558;2023-04-16T08:55:35;99936.38;;;19.50;48.32
78839;BME280;68405;47.190;27.558;2023-04-16T08:58:10;99937.58;;;19.50;48.14
78839;BME280;68405;47.190;27.558;2023-04-16T09:00:44;99942.66;;;18.65;49.32
78839;BME280;68405;47.190;27.558;2023-04-16T09:03:16;99945.13;;;17.84;51.38
78839;BME280;68405;47.190;27.558;2023-04-16T09:05:49;99945.58;;;17.74;52.22
78839;BME280;68405;47.190;27.558;2023-04-16T09:08:21;99948.34;;;17.75;51.99
78839;BME280;68405;47.190;27.558;2023-04-16T09:10:54;99947.16;;;17.88;52.17
78839;BME280;68405;47.190;27.558;2023-04-16T09:13:25;99955.41;;;17.71;52.45
78839;BME280;68405;47.190;27.558;2023-04-16T09:15:57;99954.45;;;17.56;53.42
78839;BME280;68405;47.190;27.558;2023-04-16T09:18:31;99949.29;;;17.60;53.22
78839;BME280;68405;47.190;27.558;2023-04-16T09:21:02;99950.96;;;17.06;54.70
78839;BME280;68405;47.190;27.558;2023-04-16T09:23:34;99954.92;;;16.80;55.80
78839;BME280;68405;47.190;27.558;2023-04-16T09:26:07;99961.73;;;16.84;55.63
78839;BME280;68405;47.190;27.558;2023-04-16T09:28:44;99961.10;;;16.71;56.23
78839;BME280;68405;47.190;27.558;2023-04-16T09:31:17;99960.04;;;16.92;55.17
78839;BME280;68405;47.190;27.558;2023-04-16T09:34:01;99969.28;;;16.60;56.44
78839;BME280;68405;47.190;27.558;2023-04-16T09:36:34;99971.09;;;16.19;57.04
78839;BME280;68405;47.190;27.558;2023-04-16T09:39:06;99974.27;;;15.77;58.53
78839;BME280;68405;47.190;27.558;2023-04-16T09:41:38;99982.15;;;15.54;59.27
78839;BME280;68405;47.190;27.558;2023-04-16T09:44:11;99986.45;;;15.69;60.35
78839;BME280;68405;47.190;27.558;2023-04-16T09:46:43;99988.24;;;15.81;58.37
78839;BME280;68405;47.190;27.558;2023-04-16T09:49:16;99983.40;;;15.90;58.74
78839;BME280;68405;47.190;27.558;2023-04-16T09:51:49;99984.30;;;16.05;58.47
78839;BME280;68405;47.190;27.558;2023-04-16T09:54:26;99988.55;;;16.21;57.64
78839;BME280;68405;47.190;27.558;2023-04-16T09:56:59;99992.19;;;16.21;57.43
78839;BME280;68405;47.190;27.558;2023-04-16T09:59:33;99987.52;;;16.26;56.97
78839;BME280;68405;47.190;27.558;2023-04-16T10:02:03;99982.81;;;16.32;57.56
78839;BME280;68405;47.190;27.558;2023-04-16T10:04:49;99975.23;;;16.23;57.49
78839;BME280;68405;47.190;27.558;2023-04-16T10:07:22;99975.89;;;16.24;57.74
78839;BME280;68405;47.190;27.558;2023-04-16T10:09:59;99972.61;;;16.30;57.57
78839;BME280;68405;47.190;27.558;2023-04-16T10:12:31;99965.64;;;16.44;57.29
78839;BME280;68405;47.190;27.558;2023-04-16T10:15:03;99965.46;;;16.65;56.98
78839;BME280;68405;47.190;27.558;2023-04-16T10:17:36;99970.31;;;16.88;56.64
78839;BME280;68405;47.190;27.558;2023-04-16T10:20:09;99978.92;;;17.17;55.94
78839;BME280;68405;47.190;27.558;2023-04-16T10:22:41;99978.37;;;17.21;55.14
78839;BME280;68405;47.190;27.558;2023-04-16T10:25:13;99973.56;;;17.01;55.22
78839;BME280;68405;47.190;27.558;2023-04-16T10:27:45;99974.84;;;16.76;55.95
78839;BME280;68405;47.190;27.558;2023-04-16T10:30:18;99980.23;;;16.92;55.54
78839;BME280;68405;47.190;27.558;2023-04-16T10:32:51;99983.19;;;17.34;54.28
78839;BME280;68405;47.190;27.558;2023-04-16T10:35:29;99975.23;;;17.66;53.21
78839;BME280;68405;47.190;27.558;2023-04-16T10:38:22;99977.69;;;18.09;50.24
78839;BME280;68405;47.190;27.558;2023-04-16T10:41:02;99979.90;;;18.04;50.48
78839;BME280;68405;47.190;27.558;2023-04-16T10:43:38;99983.48;;;18.63;49.81
78839;BME280;68405;47.190;27.558;2023-04-16T10:46:21;99986.73;;;18.45;50.24
78839;BME280;68405;47.190;27.558;2023-04-16T10:48:54;99990.58;;;17.65;51.38
78839;BME280;68405;47.190;27.558;2023-04-16T10:51:28;99986.86;;;17.97;51.64
78839;BME280;68405;47.190;27.558;2023-04-16T10:54:20;99987.91;;;17.63;51.65
78839;BME280;68405;47.190;27.558;2023-04-16T10:56:54;99989.41;;;17.18;53.13
78839;BME280;68405;47.190;27.558;2023-04-16T10:59:31;99989.36;;;16.58;54.28
78839;BME280;68405;47.190;27.558;2023-04-16T11:02:08;99984.13;;;16.61;54.75
78839;BME280;68405;47.190;27.558;2023-04-16T11:04:43;99986.02;;;16.37;56.16
78839;BME280;68405;47.190;27.558;2023-04-16T11:07:18;99988.15;;;16.30;56.39
78839;BME280;68405;47.190;27.558;2023-04-16T11:09:57;99980.48;;;16.11;56.85
78839;BME280;68405;47.190;27.558;2023-04-16T11:12:34;99982.85;;;16.09;57.23
78839;BME280;68405;47.190;27.558;2023-04-16T11:15:09;99984.28;;;16.34;56.74
78839;BME280;68405;47.190;27.558;2023-04-16T11:17:42;99984.05;;;16.38;56.65
78839;BME280;68405;47.190;27.558;2023-04-16T11:20:20;99980.81;;;16.36;57.23
78839;BME280;68405;47.190;27.558;2023-04-16T11:22:53;99979.30;;;16.19;58.02
78839;BME280;68405;47.190;27.558;2023-04-16T11:25:25;99978.27;;;16.19;59.04
78839;BME280;68405;47.190;27.558;2023-04-16T11:27:58;99977.02;;;15.94;59.10
78839;BME280;68405;47.190;27.558;2023-04-16T11:30:32;99973.33;;;15.88;59.42
78839;BME280;68405;47.190;27.558;2023-04-16T11:33:04;99974.35;;;15.75;59.60
78839;BME280;68405;47.190;27.558;2023-04-16T11:35:36;99976.44;;;15.69;59.60
78839;BME280;68405;47.190;27.558;2023-04-16T11:38:08;99982.52;;;15.50;60.32
78839;BME280;68405;47.190;27.558;2023-04-16T11:40:40;99983.98;;;15.35;60.39
78839;BME280;68405;47.190;27.558;2023-04-16T11:43:17;99980.62;;;15.36;60.10
78839;BME280;68405;47.190;27.558;2023-04-16T11:45:59;99981.43;;;15.38;60.02
78839;BME280;68405;47.190;27.558;2023-04-16T11:48:50;99975.23;;;15.22;59.69
78839;BME280;68405;47.190;27.558;2023-04-16T11:51:23;99979.09;;;14.95;60.44
78839;BME280;68405;47.190;27.558;2023-04-16T11:53:55;99980.83;;;14.63;61.54
78839;BME280;68405;47.190;27.558;2023-04-16T11:56:30;99984.46;;;14.20;63.34
78839;BME280;68405;47.190;27.558;2023-04-16T11:59:12;99978.66;;;14.14;63.67
78839;BME280;68405;47.190;27.558;2023-04-16T12:01:47;99977.63;;;13.95;65.24
78839;BME280;68405;47.190;27.558;2023-04-16T12:04:20;99972.83;;;13.85;65.63
78839;BME280;68405;47.190;27.558;2023-04-16T12:07:10;99974.26;;;13.70;68.12
78839;BME280;68405;47.190;27.558;2023-04-16T12:09:43;99977.92;;;13.54;67.13
78839;BME280;68405;47.190;27.558;2023-04-16T12:12:28;99976.33;;;13.26;70.04
78839;BME280;68405;47.190;27.558;2023-04-16T12:15:00;99977.56;;;13.02;71.65
78839;BME280;68405;47.190;27.558;2023-04-16T12:17:34;99973.14;;;12.78;73.84
78839;BME280;68405;47.190;27.558;2023-04-16T12:20:09;99970.03;;;12.57;74.82
78839;BME280;68405;47.190;27.558;2023-04-16T12:22:45;99972.30;;;12.31;76.19
78839;BME280;68405;47.190;27.558;2023-04-16T12:25:18;99965.50;;;12.23;74.21
78839;BME280;68405;47.190;27.558;2023-04-16T12:27:51;99965.73;;;12.16;77.62
78839;BME280;68405;47.190;27.558;2023-04-16T12:30:25;99967.50;;;12.12;78.13
78839;BME280;68405;47.190;27.558;2023-04-16T12:33:16;99971.88;;;11.97;78.46
78839;BME280;68405;47.190;27.558;2023-04-16T12:35:49;99977.45;;;11.78;80.25
78839;BME280;68405;47.190;27.558;2023-04-16T12:38:20;99984.05;;;11.74;80.39
78839;BME280;68405;47.190;27.558;2023-04-16T12:40:52;99986.05;;;11.67;78.76
78839;BME280;68405;47.190;27.558;2023-04-16T12:43:25;99981.53;;;11.62;80.86
78839;BME280;68405;47.190;27.558;2023-04-16T12:45:57;99978.72;;;11.58;81.27
78839;BME280;68405;47.190;27.558;2023-04-16T12:48:28;99973.20;;;11.57;81.87
78839;BME280;68405;47.190;27.558;2023-04-16T12:51:01;99973.27;;;11.50;81.72
78839;BME280;68405;47.190;27.558;2023-04-16T12:53:33;99975.15;;;11.46;81.99
78839;BME280;68405;47.190;27.558;2023-04-16T12:56:05;99970.72;;;11.49;80.75
78839;BME280;68405;47.190;27.558;2023-04-16T12:58:36;99965.17;;;11.48;81.50
78839;BME280;68405;47.190;27.558;2023-04-16T13:01:08;99963.44;;;11.49;83.53
78839;BME280;68405;47.190;27.558;2023-04-16T13:03:40;99958.40;;;11.48;81.19
78839;BME280;68405;47.190;27.558;2023-04-16T13:06:13;99956.59;;;11.50;78.90
78839;BME280;68405;47.190;27.558;2023-04-16T13:08:45;99950.92;;;11.57;82.57
78839;BME280;68405;47.190;27.558;2023-04-16T13:11:17;99947.37;;;11.59;81.56
78839;BME280;68405;47.190;27.558;2023-04-16T13:13:49;99945.27;;;11.59;78.76
78839;BME280;68405;47.190;27.558;2023-04-16T13:16:20;99947.34;;;11.60;80.43
78839;BME280;68405;47.190;27.558;2023-04-16T13:18:52;99942.73;;;11.62;80.00
78839;BME280;68405;47.190;27.558;2023-04-16T13:21:24;99944.50;;;11.66;80.08